Time;durP1;ratioP1;P1;durP2;ratioP2;P2;SDS_P1;SDS_P2;PMS_P1;PMS_P2;Temp;Humidity;BMP_temperature;BMP_pressure;BME280_temperature;BME280_humidity;BME280_pressure;Samples;Min_cycle;Max_cycle;Signal;HPM_P1;HPM_P2
2023/04/24 00:00:48;;;;;;;5.13;4.73;;;12.20;99.90;;;;;;5010311;28;20841;-51
2023/04/24 00:03:15;;;;;;;5.10;4.70;;;12.20;99.90;;;;;;5019704;28;20652;-52
2023/04/24 00:05:43;;;;;;;5.07;4.30;;;12.20;99.90;;;;;;5023983;28;20211;-51
2023/04/24 00:08:10;;;;;;;5.00;4.60;;;12.20;99.90;;;;;;5024016;28;20246;-53
2023/04/24 00:10:37;;;;;;;5.53;5.13;;;12.20;99.90;;;;;;5023276;28;20188;-49
2023/04/24 00:13:07;;;;;;;5.10;4.70;;;12.20;99.90;;;;;;5003230;28;20302;-53
2023/04/24 00:15:34;;;;;;;5.47;4.90;;;12.10;99.90;;;;;;5014586;28;20212;-51
2023/04/24 00:18:02;;;;;;;7.50;4.50;;;12.10;99.90;;;;;;5015180;28;20212;-47
2023/04/24 00:20:32;;;;;;;5.97;5.40;;;12.10;99.90;;;;;;5013045;28;20198;-52
2023/04/24 00:23:00;;;;;;;5.10;4.70;;;12.10;99.90;;;;;;5025530;28;20575;-51
2023/04/24 00:25:27;;;;;;;5.50;5.00;;;12.10;99.90;;;;;;5021119;28;20908;-49
2023/04/24 00:27:54;;;;;;;5.07;4.70;;;12.10;99.90;;;;;;5000794;28;20215;-50
2023/04/24 00:30:21;;;;;;;5.50;4.97;;;12.10;99.90;;;;;;5013586;28;20246;-51
2023/04/24 00:32:48;;;;;;;5.13;4.70;;;12.00;99.90;;;;;;4987776;28;20676;-50
2023/04/24 00:35:15;;;;;;;5.50;5.03;;;12.00;99.90;;;;;;5021188;28;20255;-52
2023/04/24 00:37:43;;;;;;;5.80;5.20;;;12.00;99.90;;;;;;5018637;28;20187;-52
2023/04/24 00:40:12;;;;;;;6.20;5.17;;;12.00;99.90;;;;;;5004548;28;20192;-53
2023/04/24 00:42:40;;;;;;;5.50;4.83;;;12.00;99.90;;;;;;4997069;28;20974;-48
2023/04/24 00:45:08;;;;;;;7.80;5.23;;;12.00;99.90;;;;;;5021011;28;20208;-53
2023/04/24 00:47:35;;;;;;;4.83;4.53;;;12.00;99.90;;;;;;5014656;28;20215;-47
2023/04/24 00:50:03;;;;;;;5.70;5.20;;;12.00;99.90;;;;;;5024491;28;20660;-48
2023/04/24 00:52:31;;;;;;;5.47;4.97;;;11.90;99.90;;;;;;5022212;28;20188;-51
2023/04/24 00:54:58;;;;;;;5.40;4.90;;;11.90;99.90;;;;;;5015064;28;20997;-50
2023/04/24 00:57:27;;;;;;;5.53;5.00;;;12.00;99.90;;;;;;4977236;28;20881;-52
2023/04/24 00:59:54;;;;;;;5.57;5.07;;;12.00;99.90;;;;;;5024149;28;20266;-50
2023/04/24 01:02:24;;;;;;;5.83;5.33;;;12.00;99.90;;;;;;5018995;28;20192;-51
2023/04/24 01:04:52;;;;;;;5.57;5.13;;;11.90;99.90;;;;;;5016358;28;20252;-50
2023/04/24 01:07:21;;;;;;;5.20;4.70;;;11.90;99.90;;;;;;5021565;28;20611;-55
2023/04/24 01:09:50;;;;;;;5.70;5.20;;;11.90;99.90;;;;;;5016648;28;20238;-55
2023/04/24 01:12:19;;;;;;;5.67;5.27;;;11.80;99.90;;;;;;5000092;28;20195;-54
2023/04/24 01:14:47;;;;;;;6.30;5.70;;;11.80;99.90;;;;;;5021589;28;20703;-51
2023/04/24 01:17:16;;;;;;;5.70;5.20;;;11.80;99.90;;;;;;5021788;28;20299;-53
2023/04/24 01:19:44;;;;;;;5.40;5.00;;;11.80;99.90;;;;;;5009534;28;20679;-51
2023/04/24 01:22:14;;;;;;;5.53;5.03;;;11.70;99.90;;;;;;5019152;28;20586;-53
2023/04/24 01:24:41;;;;;;;5.60;5.10;;;11.70;99.90;;;;;;4997452;28;20223;-53
2023/04/24 01:27:10;;;;;;;5.60;5.03;;;11.70;99.90;;;;;;5022396;28;20559;-55
2023/04/24 01:29:37;;;;;;;5.63;4.70;;;11.70;99.90;;;;;;4998581;28;20920;-51
2023/04/24 01:32:05;;;;;;;5.43;4.87;;;11.70;99.90;;;;;;5006120;28;20319;-51
2023/04/24 01:34:33;;;;;;;6.07;5.27;;;11.70;99.90;;;;;;5013105;28;20227;-49
2023/04/24 01:37:00;;;;;;;5.33;4.93;;;11.60;99.90;;;;;;5018369;28;20188;-50
2023/04/24 01:39:29;;;;;;;5.33;4.83;;;11.70;99.90;;;;;;4995752;28;20200;-49
2023/04/24 01:41:56;;;;;;;5.00;4.60;;;11.60;99.90;;;;;;5024312;28;20196;-47
2023/04/24 01:44:24;;;;;;;5.40;4.97;;;11.60;99.90;;;;;;5001226;28;20208;-51
2023/04/24 01:46:50;;;;;;;5.33;4.87;;;11.60;99.90;;;;;;5019547;28;20188;-51
2023/04/24 01:49:18;;;;;;;5.07;4.67;;;11.60;99.90;;;;;;5014554;28;20207;-53
2023/04/24 01:51:45;;;;;;;5.60;5.10;;;11.60;99.90;;;;;;5013499;28;20262;-52
2023/04/24 01:54:13;;;;;;;5.40;5.00;;;11.60;99.90;;;;;;5018467;28;20219;-53
2023/04/24 01:56:43;;;;;;;5.17;4.77;;;11.70;99.90;;;;;;5022069;28;20210;-49
2023/04/24 01:59:11;;;;;;;4.67;4.37;;;11.70;99.90;;;;;;4996726;28;20919;-54
2023/04/24 02:01:39;;;;;;;5.00;4.50;;;11.70;99.90;;;;;;5013082;28;20273;-54
2023/04/24 02:04:07;;;;;;;5.10;4.60;;;11.70;99.90;;;;;;5000115;28;20254;-51
2023/04/24 02:06:35;;;;;;;4.73;4.33;;;11.70;99.90;;;;;;4990745;28;20188;-52
2023/04/24 02:09:03;;;;;;;5.00;4.50;;;11.60;99.90;;;;;;5022832;28;20223;-51
2023/04/24 02:11:30;;;;;;;4.00;3.70;;;11.60;99.90;;;;;;5002185;28;20298;-53
2023/04/24 02:13:59;;;;;;;3.67;3.37;;;11.60;99.90;;;;;;5005621;28;20204;-52
2023/04/24 02:16:26;;;;;;;19.53;3.80;;;11.60;99.90;;;;;;5000271;28;20216;-48
2023/04/24 02:18:53;;;;;;;3.93;3.40;;;11.60;99.90;;;;;;5015031;28;20188;-48
2023/04/24 02:21:20;;;;;;;3.60;3.03;;;11.60;99.90;;;;;;4988786;28;20203;-52
2023/04/24 02:23:47;;;;;;;2.90;2.67;;;11.60;99.90;;;;;;5000718;28;20327;-50
2023/04/24 02:26:15;;;;;;;2.73;2.53;;;11.50;99.90;;;;;;5001948;28;20215;-51
2023/04/24 02:28:41;;;;;;;2.60;2.40;;;11.60;99.90;;;;;;5020742;28;20270;-54
2023/04/24 02:31:09;;;;;;;2.67;2.17;;;11.50;99.90;;;;;;5002008;28;20585;-51
2023/04/24 02:33:36;;;;;;;2.20;2.00;;;11.50;99.90;;;;;;5013259;28;20192;-48
2023/04/24 02:36:04;;;;;;;2.37;1.97;;;11.50;99.90;;;;;;5013538;28;20255;-54
2023/04/24 02:38:31;;;;;;;3.90;1.97;;;11.50;99.90;;;;;;4999900;28;20188;-52
2023/04/24 02:40:58;;;;;;;1.77;1.67;;;11.50;99.90;;;;;;5005415;28;20196;-48
2023/04/24 02:43:26;;;;;;;2.33;1.77;;;11.40;99.90;;;;;;5001662;28;20946;-51
2023/04/24 02:45:54;;;;;;;1.80;1.70;;;11.40;99.90;;;;;;4993112;28;20221;-52
2023/04/24 02:48:43;;;;;;;1.70;1.60;;;11.40;99.90;;;;;;5010244;28;20199;-52
2023/04/24 02:51:10;;;;;;;3.13;1.50;;;11.40;99.90;;;;;;4989588;28;20223;-54
2023/04/24 02:53:38;;;;;;;2.17;1.83;;;11.30;99.90;;;;;;5018331;28;20944;-52
2023/04/24 02:56:05;;;;;;;2.00;1.80;;;11.30;99.90;;;;;;4998048;28;20212;-50
2023/04/24 02:58:32;;;;;;;2.30;1.93;;;11.30;99.90;;;;;;5000915;28;20912;-52
2023/04/24 03:00:59;;;;;;;5.83;2.10;;;11.20;99.90;;;;;;5015000;28;20196;-50
2023/04/24 03:03:27;;;;;;;2.50;2.27;;;11.20;99.90;;;;;;4980034;28;20249;-53
2023/04/24 03:05:55;;;;;;;2.40;2.20;;;11.20;99.90;;;;;;5026675;28;20212;-53
2023/04/24 03:08:22;;;;;;;2.10;2.00;;;11.20;99.90;;;;;;4996676;28;20262;-50
2023/04/24 03:10:49;;;;;;;3.20;2.10;;;11.20;99.90;;;;;;5009791;28;20200;-49
2023/04/24 03:13:16;;;;;;;2.23;2.00;;;11.10;99.90;;;;;;5014574;28;20184;-55
2023/04/24 03:15:44;;;;;;;2.13;2.00;;;11.20;99.90;;;;;;5018160;28;20227;-50
2023/04/24 03:18:11;;;;;;;2.60;2.40;;;11.10;99.90;;;;;;4995562;28;20212;-54
2023/04/24 03:20:38;;;;;;;1.93;1.83;;;11.10;99.90;;;;;;5006562;28;20901;-47
2023/04/24 03:23:07;;;;;;;3.97;2.30;;;11.10;99.90;;;;;;4999657;28;20208;-52
2023/04/24 03:25:34;;;;;;;2.53;2.33;;;11.10;99.90;;;;;;4998926;28;20212;-52
2023/04/24 03:28:01;;;;;;;2.60;2.40;;;11.00;99.90;;;;;;5001485;28;20203;-50
2023/04/24 03:30:52;;;;;;;1.90;1.80;;;11.00;99.90;;;;;;5008123;28;20220;-47
2023/04/24 03:33:21;;;;;;;2.03;1.93;;;11.00;99.90;;;;;;4986143;28;20585;-53
2023/04/24 03:35:59;;;;;;;2.27;2.13;;;11.00;99.90;;;;;;5007842;28;20226;-51
2023/04/24 03:38:29;;;;;;;1.70;1.60;;;11.00;99.90;;;;;;4987383;28;20201;-53
2023/04/24 03:41:15;;;;;;;1.70;1.60;;;10.90;99.90;;;;;;5008783;28;20219;-52
2023/04/24 03:43:49;;;;;;;3.80;1.60;;;10.90;99.90;;;;;;4997552;28;20730;-52
2023/04/24 03:46:17;;;;;;;1.70;1.60;;;10.90;99.90;;;;;;5005782;28;20215;-52
2023/04/24 03:49:02;;;;;;;1.83;1.73;;;10.90;99.90;;;;;;4986713;28;20222;-53
2023/04/24 03:51:34;;;;;;;1.90;1.80;;;10.90;99.90;;;;;;5005180;28;20188;-52
2023/04/24 03:54:11;;;;;;;1.67;1.60;;;10.90;99.90;;;;;;4997373;28;20231;-53
2023/04/24 03:56:40;;;;;;;1.87;1.77;;;10.80;99.90;;;;;;4989942;28;20200;-53
2023/04/24 03:59:07;;;;;;;3.03;2.30;;;10.80;99.90;;;;;;5004480;28;20206;-54
2023/04/24 04:01:37;;;;;;;2.63;2.00;;;10.80;99.90;;;;;;5005889;28;20184;-49
2023/04/24 04:04:14;;;;;;;2.13;2.03;;;10.80;99.90;;;;;;4985675;28;20219;-54
2023/04/24 04:06:42;;;;;;;2.07;1.90;;;10.70;99.90;;;;;;5006459;28;20934;-53
2023/04/24 04:09:11;;;;;;;2.60;1.90;;;10.70;99.90;;;;;;4992337;28;20200;-51
2023/04/24 04:11:38;;;;;;;1.90;1.80;;;10.70;99.90;;;;;;5010043;28;20251;-52
2023/04/24 04:14:05;;;;;;;2.63;2.20;;;10.60;99.90;;;;;;5024431;28;20549;-50
2023/04/24 04:16:36;;;;;;;1.83;1.73;;;10.60;99.90;;;;;;5015426;28;20417;-53
2023/04/24 04:19:03;;;;;;;2.33;2.20;;;10.60;99.90;;;;;;5007366;28;20196;-53
2023/04/24 04:21:32;;;;;;;2.77;2.30;;;10.60;99.90;;;;;;4979731;28;21040;-52
2023/04/24 04:24:11;;;;;;;2.30;2.10;;;10.60;99.90;;;;;;4990908;28;20564;-53
2023/04/24 04:26:46;;;;;;;2.10;1.93;;;10.60;99.90;;;;;;5003754;28;20188;-52
2023/04/24 04:29:22;;;;;;;3.07;2.77;;;10.60;99.90;;;;;;4994147;28;20196;-53
2023/04/24 04:31:50;;;;;;;1.60;1.50;;;10.60;99.90;;;;;;5007675;28;20196;-52
2023/04/24 04:34:18;;;;;;;3.50;2.70;;;10.60;99.90;;;;;;5008696;28;20200;-56
2023/04/24 04:36:46;;;;;;;2.07;1.73;;;10.60;99.90;;;;;;4992941;28;20196;-50
2023/04/24 04:39:34;;;;;;;2.60;2.13;;;10.60;99.90;;;;;;4997116;28;20204;-46
2023/04/24 04:42:06;;;;;;;3.03;1.70;;;10.70;99.90;;;;;;5006035;28;20192;-55
2023/04/24 04:44:39;;;;;;;2.83;1.77;;;10.60;99.90;;;;;;5014648;28;20223;-49
2023/04/24 04:47:08;;;;;;;1.57;1.40;;;10.60;99.90;;;;;;5000087;28;20216;-54
2023/04/24 04:49:38;;;;;;;1.97;1.33;;;10.70;99.90;;;;;;4997740;28;20876;-55
2023/04/24 04:52:06;;;;;;;2.37;1.67;;;10.60;99.90;;;;;;4990481;28;20220;-53
2023/04/24 04:54:34;;;;;;;1.57;1.30;;;10.70;99.90;;;;;;5019834;28;20235;-46
2023/04/24 04:57:01;;;;;;;1.47;1.37;;;10.70;99.90;;;;;;5000095;28;20200;-48
2023/04/24 04:59:47;;;;;;;1.80;1.57;;;10.70;99.90;;;;;;5022631;28;20377;-49
2023/04/24 05:02:23;;;;;;;1.70;1.60;;;10.90;99.90;;;;;;5003287;28;20828;-53
2023/04/24 05:04:50;;;;;;;2.27;2.07;;;10.90;99.90;;;;;;4994430;28;20243;-54
2023/04/24 05:07:18;;;;;;;2.00;1.50;;;11.00;99.90;;;;;;4975609;28;20648;-55
2023/04/24 05:09:52;;;;;;;1.93;1.67;;;11.10;99.90;;;;;;5006917;28;20240;-51
2023/04/24 05:12:19;;;;;;;2.27;1.57;;;11.20;99.90;;;;;;4996067;28;20200;-54
2023/04/24 05:14:51;;;;;;;2.30;1.50;;;11.20;99.90;;;;;;4997477;28;20308;-51
2023/04/24 05:17:19;;;;;;;2.13;1.70;;;11.10;99.90;;;;;;5001555;28;20294;-50
2023/04/24 05:19:46;;;;;;;1.40;1.30;;;11.10;99.90;;;;;;4984701;28;20200;-55
2023/04/24 05:22:14;;;;;;;1.70;1.33;;;11.10;99.90;;;;;;4979273;28;20547;-54
2023/04/24 05:24:48;;;;;;;1.10;1.00;;;11.10;99.90;;;;;;4996834;28;20604;-51
2023/04/24 05:27:33;;;;;;;1.50;1.40;;;11.10;99.90;;;;;;4990333;28;20200;-48
2023/04/24 05:30:00;;;;;;;1.53;1.43;;;11.10;99.90;;;;;;4993172;28;20609;-54
2023/04/24 05:32:27;;;;;;;1.10;1.10;;;11.10;99.90;;;;;;5011140;28;20203;-54
2023/04/24 05:34:55;;;;;;;2.87;1.10;;;11.20;99.90;;;;;;5013874;28;20215;-50
2023/04/24 05:37:23;;;;;;;2.27;1.50;;;11.20;99.90;;;;;;4988544;28;20604;-55
2023/04/24 05:39:50;;;;;;;1.63;1.30;;;11.30;99.90;;;;;;5004445;28;20684;-49
2023/04/24 05:42:17;;;;;;;1.20;1.10;;;11.30;99.90;;;;;;5003680;28;20272;-56
2023/04/24 05:44:46;;;;;;;1.13;1.10;;;11.40;99.90;;;;;;5011662;28;20303;-53
2023/04/24 05:47:12;;;;;;;2.73;1.10;;;11.50;99.90;;;;;;4989490;28;20208;-55
2023/04/24 05:49:39;;;;;;;1.90;1.80;;;11.60;99.90;;;;;;4995393;28;20197;-53
2023/04/24 05:52:10;;;;;;;1.10;1.00;;;11.60;99.90;;;;;;5002009;28;20200;-56
2023/04/24 05:54:38;;;;;;;2.47;1.13;;;11.70;99.90;;;;;;4988540;28;21099;-47
2023/04/24 05:57:07;;;;;;;1.20;1.10;;;11.70;99.90;;;;;;5015230;28;20727;-56
2023/04/24 05:59:55;;;;;;;1.23;1.10;;;11.80;99.90;;;;;;4986948;28;20278;-51
2023/04/24 06:02:23;;;;;;;1.60;1.50;;;11.80;99.90;;;;;;4984147;28;20255;-55
2023/04/24 06:04:49;;;;;;;1.60;1.40;;;11.80;99.90;;;;;;4999258;28;20642;-51
2023/04/24 06:07:18;;;;;;;2.00;1.20;;;11.80;99.90;;;;;;4977235;28;20948;-54
2023/04/24 06:09:45;;;;;;;1.37;1.27;;;11.80;99.90;;;;;;4991284;28;20303;-51
2023/04/24 06:12:12;;;;;;;2.20;1.93;;;11.80;99.90;;;;;;4997980;28;20199;-55
2023/04/24 06:14:57;;;;;;;1.40;1.30;;;11.80;99.90;;;;;;4984097;28;20351;-53
2023/04/24 06:17:49;;;;;;;2.47;1.53;;;11.90;99.90;;;;;;4996329;28;20300;-49
2023/04/24 06:20:18;;;;;;;2.10;1.87;;;11.90;99.90;;;;;;5002611;28;20196;-54
2023/04/24 06:22:45;;;;;;;1.57;1.47;;;12.00;99.90;;;;;;5021473;28;20195;-52
2023/04/24 06:25:13;;;;;;;8.60;2.97;;;12.00;99.90;;;;;;4970169;28;20274;-56
2023/04/24 06:27:42;;;;;;;2.17;1.60;;;12.00;99.90;;;;;;4995814;28;20204;-54
2023/04/24 06:30:11;;;;;;;1.90;1.80;;;12.10;99.90;;;;;;5009303;28;20762;-49
2023/04/24 06:32:39;;;;;;;1.33;1.23;;;12.10;99.90;;;;;;4990878;28;20195;-48
2023/04/24 06:35:09;;;;;;;1.47;1.37;;;12.20;99.90;;;;;;5005061;28;20657;-50
2023/04/24 06:37:40;;;;;;;2.23;1.43;;;12.30;99.90;;;;;;5012803;28;21062;-51
2023/04/24 06:40:08;;;;;;;1.83;1.67;;;12.30;99.90;;;;;;5001017;28;20239;-52
2023/04/24 06:42:36;;;;;;;1.10;1.00;;;12.30;99.90;;;;;;5005808;28;20207;-52
2023/04/24 06:45:04;;;;;;;1.17;1.07;;;12.40;99.90;;;;;;4996661;28;20638;-52
2023/04/24 06:47:32;;;;;;;1.23;1.13;;;12.40;99.90;;;;;;5010583;28;20270;-50
2023/04/24 06:49:59;;;;;;;1.23;1.13;;;12.40;99.90;;;;;;5022500;28;20192;-53
2023/04/24 06:52:27;;;;;;;1.10;1.07;;;12.40;99.90;;;;;;5020501;28;20217;-54
2023/04/24 06:55:01;;;;;;;1.80;1.40;;;12.50;99.90;;;;;;4992952;28;20231;-49
2023/04/24 06:57:29;;;;;;;2.33;1.33;;;12.50;99.90;;;;;;5004110;28;20690;-52
2023/04/24 06:59:56;;;;;;;3.73;1.23;;;12.60;99.90;;;;;;5012696;28;20196;-46
2023/04/24 07:02:26;;;;;;;1.17;1.13;;;12.70;99.90;;;;;;5005041;28;20231;-53
2023/04/24 07:04:54;;;;;;;1.40;1.30;;;12.80;99.90;;;;;;5013574;28;20311;-45
2023/04/24 07:07:20;;;;;;;1.37;1.27;;;12.90;99.90;;;;;;5016554;28;20446;-52
2023/04/24 07:09:48;;;;;;;1.80;1.23;;;13.00;99.90;;;;;;4995169;28;20904;-51
2023/04/24 07:12:16;;;;;;;1.33;1.33;;;13.10;99.90;;;;;;5009341;28;20700;-50
2023/04/24 07:14:45;;;;;;;1.70;1.60;;;13.20;99.90;;;;;;5018272;28;20231;-53
2023/04/24 07:17:13;;;;;;;1.70;1.60;;;13.20;99.90;;;;;;4980515;28;20234;-53
2023/04/24 07:19:41;;;;;;;2.43;2.13;;;13.20;99.90;;;;;;5010179;28;20746;-50
2023/04/24 07:22:11;;;;;;;1.70;1.60;;;13.10;99.90;;;;;;5014435;28;20204;-49
2023/04/24 07:24:38;;;;;;;1.80;1.70;;;13.20;99.90;;;;;;5003716;28;20306;-53
2023/04/24 07:27:05;;;;;;;2.07;1.97;;;13.10;99.90;;;;;;4998160;28;20684;-50
2023/04/24 07:29:33;;;;;;;1.77;1.67;;;13.20;99.90;;;;;;5010388;28;20981;-51
2023/04/24 07:31:59;;;;;;;2.17;1.97;;;13.20;99.90;;;;;;5010583;28;20209;-55
2023/04/24 07:34:26;;;;;;;3.87;2.50;;;13.20;99.90;;;;;;5007451;28;20192;-51
2023/04/24 07:36:53;;;;;;;2.43;2.00;;;13.10;99.90;;;;;;5008605;28;20366;-51
2023/04/24 07:39:21;;;;;;;2.57;2.37;;;13.00;99.90;;;;;;5014016;28;20196;-49
2023/04/24 07:41:47;;;;;;;2.60;2.13;;;13.10;99.90;;;;;;4982213;28;20213;-52
2023/04/24 07:44:14;;;;;;;2.40;2.20;;;13.20;99.90;;;;;;5015430;28;20208;-53
2023/04/24 07:46:41;;;;;;;2.90;2.70;;;13.30;99.90;;;;;;5013161;28;20544;-52
2023/04/24 07:49:08;;;;;;;2.50;1.83;;;13.40;99.90;;;;;;5008274;28;20216;-52
2023/04/24 07:51:38;;;;;;;2.70;2.50;;;13.40;99.90;;;;;;5015246;28;20200;-52
2023/04/24 07:54:05;;;;;;;3.17;2.87;;;13.50;99.90;;;;;;5018726;28;20192;-55
2023/04/24 07:56:33;;;;;;;3.17;2.97;;;13.60;99.90;;;;;;5007252;28;20219;-53
2023/04/24 07:59:01;;;;;;;3.13;2.60;;;13.70;99.90;;;;;;5016721;28;20192;-53
2023/04/24 08:01:27;;;;;;;3.33;2.80;;;13.80;99.90;;;;;;5025447;28;20251;-54
2023/04/24 08:03:54;;;;;;;4.20;2.57;;;13.60;99.90;;;;;;5008484;28;20200;-50
2023/04/24 08:06:21;;;;;;;3.27;3.07;;;13.50;99.90;;;;;;5014203;28;20208;-56
2023/04/24 08:08:48;;;;;;;3.00;2.83;;;13.40;99.90;;;;;;5018895;28;20203;-52
2023/04/24 08:11:14;;;;;;;3.20;3.00;;;13.30;99.90;;;;;;5025107;28;20201;-52
2023/04/24 08:13:43;;;;;;;3.43;3.13;;;13.30;99.90;;;;;;4999675;28;20228;-54
2023/04/24 08:16:09;;;;;;;4.07;3.77;;;13.20;99.90;;;;;;5020714;28;20212;-55
2023/04/24 08:18:36;;;;;;;3.80;3.47;;;13.20;99.90;;;;;;5007751;28;20259;-53
2023/04/24 08:21:03;;;;;;;3.47;3.20;;;13.20;99.90;;;;;;5005900;28;20405;-49
2023/04/24 08:23:30;;;;;;;3.13;2.93;;;13.30;99.90;;;;;;5015550;28;20196;-53
2023/04/24 08:25:57;;;;;;;3.77;3.20;;;13.50;99.90;;;;;;5021230;28;20246;-51
2023/04/24 08:28:24;;;;;;;3.33;3.10;;;13.60;99.90;;;;;;5005543;28;20201;-50
2023/04/24 08:30:54;;;;;;;3.67;3.37;;;13.70;99.90;;;;;;5008218;28;20281;-52
2023/04/24 08:33:21;;;;;;;3.87;3.40;;;13.70;99.90;;;;;;5013260;28;20195;-51
2023/04/24 08:35:47;;;;;;;3.63;3.33;;;13.60;99.90;;;;;;5009924;28;20232;-54
2023/04/24 08:38:14;;;;;;;3.37;3.17;;;13.50;99.90;;;;;;5019735;28;20207;-52
2023/04/24 08:40:41;;;;;;;3.90;3.23;;;13.30;99.90;;;;;;5022370;28;20192;-51
2023/04/24 08:43:09;;;;;;;3.63;3.33;;;13.30;99.90;;;;;;4986180;28;20224;-54
2023/04/24 08:45:36;;;;;;;3.80;3.50;;;13.30;99.90;;;;;;5010059;28;20224;-53
2023/04/24 08:48:06;;;;;;;3.73;3.43;;;13.40;99.90;;;;;;5016390;28;20270;-51
2023/04/24 08:50:34;;;;;;;4.30;3.93;;;13.40;99.90;;;;;;5012524;28;20299;-52
2023/04/24 08:53:02;;;;;;;3.50;3.20;;;13.50;99.90;;;;;;5020981;28;20683;-51
2023/04/24 08:55:31;;;;;;;4.40;3.50;;;13.40;99.90;;;;;;5023340;28;20235;-50
2023/04/24 08:57:59;;;;;;;4.43;4.07;;;13.40;99.90;;;;;;4997632;28;20269;-51
2023/04/24 09:00:27;;;;;;;3.57;3.37;;;13.30;99.90;;;;;;5016080;28;20198;-52
2023/04/24 09:02:55;;;;;;;4.23;3.90;;;13.20;99.90;;;;;;5013847;28;20211;-52
2023/04/24 09:05:24;;;;;;;5.00;3.83;;;13.20;99.90;;;;;;5013413;28;20692;-51
2023/04/24 09:07:54;;;;;;;4.07;3.77;;;13.20;99.90;;;;;;5020962;28;20216;-53
2023/04/24 09:10:22;;;;;;;4.73;4.33;;;13.20;99.90;;;;;;5017263;28;20268;-53
2023/04/24 09:12:51;;;;;;;4.60;4.20;;;13.40;99.90;;;;;;5018964;28;21122;-52
2023/04/24 09:15:20;;;;;;;4.63;4.20;;;13.40;99.90;;;;;;4993549;28;20354;-50
2023/04/24 09:17:47;;;;;;;4.80;4.50;;;13.40;99.90;;;;;;5011000;28;20220;-53
2023/04/24 09:20:14;;;;;;;5.20;4.70;;;13.40;99.90;;;;;;5017237;28;20200;-52
2023/04/24 09:22:43;;;;;;;4.80;4.40;;;13.40;99.90;;;;;;5008940;28;20208;-50
2023/04/24 09:25:12;;;;;;;6.07;5.27;;;13.50;99.90;;;;;;5022600;28;20274;-51
2023/04/24 09:27:44;;;;;;;5.37;4.97;;;13.50;99.90;;;;;;5017742;28;20258;-49
2023/04/24 09:30:12;;;;;;;5.47;4.97;;;13.40;99.90;;;;;;4996068;28;20200;-55
2023/04/24 09:32:40;;;;;;;5.37;4.87;;;13.40;99.90;;;;;;5015230;28;20234;-49
2023/04/24 09:35:10;;;;;;;5.93;5.20;;;13.50;99.90;;;;;;5013560;28;20211;-48
2023/04/24 09:37:38;;;;;;;5.10;4.60;;;13.50;99.90;;;;;;5009203;28;20250;-53
2023/04/24 09:40:19;;;;;;;5.47;5.00;;;13.50;99.90;;;;;;5010679;28;20192;-49
2023/04/24 09:42:51;;;;;;;5.93;5.50;;;13.40;99.90;;;;;;5005625;28;20608;-50
2023/04/24 09:45:18;;;;;;;5.70;5.20;;;13.40;99.90;;;;;;5002142;28;20224;-47
2023/04/24 09:47:46;;;;;;;5.20;4.80;;;13.30;99.90;;;;;;5008325;28;20212;-51
2023/04/24 09:50:14;;;;;;;5.43;4.57;;;13.30;99.90;;;;;;5022760;28;20221;-50
2023/04/24 09:52:43;;;;;;;4.33;4.03;;;13.40;99.90;;;;;;5006150;28;20215;-52
2023/04/24 09:55:21;;;;;;;4.73;4.43;;;13.50;99.90;;;;;;5010210;28;20224;-52
2023/04/24 09:57:50;;;;;;;4.93;4.53;;;13.60;99.90;;;;;;4994531;28;20219;-55
2023/04/24 10:00:23;;;;;;;4.50;4.20;;;13.60;99.90;;;;;;5014669;28;20220;-56
2023/04/24 10:02:55;;;;;;;5.90;5.40;;;13.60;99.90;;;;;;4997992;28;20199;-55
2023/04/24 10:05:28;;;;;;;5.30;4.80;;;13.60;99.90;;;;;;5014379;28;20248;-54
2023/04/24 10:07:58;;;;;;;6.57;5.77;;;13.50;99.90;;;;;;5003381;28;20257;-52
2023/04/24 10:10:26;;;;;;;6.77;5.00;;;13.40;99.90;;;;;;5012042;28;20192;-50
2023/04/24 10:12:54;;;;;;;5.20;4.70;;;13.40;99.90;;;;;;5013710;28;20196;-52
2023/04/24 10:15:21;;;;;;;5.83;5.13;;;13.40;99.90;;;;;;5019776;28;20228;-49
2023/04/24 10:17:52;;;;;;;6.73;6.03;;;13.40;99.90;;;;;;4994401;28;20918;-51
2023/04/24 10:20:23;;;;;;;5.70;5.20;;;13.30;99.90;;;;;;5014327;28;20608;-50
2023/04/24 10:22:52;;;;;;;6.17;5.50;;;13.30;99.90;;;;;;4984012;28;20212;-50
2023/04/24 10:25:21;;;;;;;6.70;6.10;;;13.30;99.90;;;;;;5016780;28;20216;-49
2023/04/24 10:27:51;;;;;;;6.50;5.67;;;13.20;99.90;;;;;;5015845;28;20639;-48
2023/04/24 10:30:19;;;;;;;7.90;6.07;;;13.20;99.90;;;;;;5018263;28;20212;-55
2023/04/24 10:32:46;;;;;;;6.90;6.30;;;13.20;99.90;;;;;;4997480;28;20216;-49
2023/04/24 10:35:15;;;;;;;6.87;5.97;;;13.20;99.90;;;;;;5012920;28;20259;-54
2023/04/24 10:37:45;;;;;;;6.67;6.07;;;13.30;99.90;;;;;;5009740;28;20266;-54
2023/04/24 10:40:17;;;;;;;8.03;6.13;;;13.40;99.90;;;;;;5010741;28;20212;-52
2023/04/24 10:42:52;;;;;;;8.00;7.10;;;13.40;99.90;;;;;;5011934;28;20249;-51
2023/04/24 10:45:21;;;;;;;7.47;6.73;;;13.30;99.90;;;;;;5023942;28;20242;-51
2023/04/24 10:47:58;;;;;;;8.70;7.00;;;13.30;99.90;;;;;;4996203;28;20231;-49
2023/04/24 10:50:27;;;;;;;9.63;7.87;;;13.40;99.90;;;;;;5010748;28;20209;-53
2023/04/24 10:52:55;;;;;;;11.43;7.30;;;13.50;99.90;;;;;;5006921;28;20208;-53
2023/04/24 10:55:41;;;;;;;8.30;7.40;;;13.50;99.90;;;;;;5006338;28;20300;-50
2023/04/24 10:58:10;;;;;;;8.93;7.13;;;13.50;99.90;;;;;;5018989;28;20262;-52
2023/04/24 11:00:39;;;;;;;9.63;7.87;;;13.60;99.90;;;;;;5018038;28;20204;-51
2023/04/24 11:03:06;;;;;;;9.50;7.30;;;13.70;99.90;;;;;;4996206;28;21065;-49
2023/04/24 11:05:53;;;;;;;10.33;7.70;;;13.60;99.90;;;;;;5012790;28;20208;-51
2023/04/24 11:08:26;;;;;;;8.50;7.73;;;13.60;99.90;;;;;;5010024;28;20232;-54
2023/04/24 11:10:59;;;;;;;9.47;8.40;;;13.60;99.90;;;;;;5009066;28;21005;-53
2023/04/24 11:13:49;;;;;;;8.40;7.60;;;13.70;99.90;;;;;;5021086;28;20263;-52
2023/04/24 11:16:22;;;;;;;9.63;8.00;;;13.80;99.90;;;;;;5007150;28;20834;-54
2023/04/24 11:18:54;;;;;;;8.53;7.73;;;13.90;99.90;;;;;;4988030;28;20216;-55
2023/04/24 11:21:22;;;;;;;8.93;7.43;;;13.90;99.90;;;;;;5010680;28;20246;-55
2023/04/24 11:23:50;;;;;;;8.30;7.50;;;14.00;99.90;;;;;;5014140;28;20346;-51
2023/04/24 11:26:19;;;;;;;7.70;6.90;;;14.00;99.90;;;;;;5013374;28;20223;-54
2023/04/24 11:28:49;;;;;;;8.50;7.10;;;14.00;99.90;;;;;;5020080;28;20200;-52
2023/04/24 11:31:35;;;;;;;10.13;8.17;;;14.00;99.90;;;;;;5013605;28;20288;-55
2023/04/24 11:34:10;;;;;;;8.50;7.70;;;14.20;99.90;;;;;;5013184;28;20539;-53
2023/04/24 11:36:37;;;;;;;8.83;7.53;;;14.30;99.90;;;;;;5005765;28;20223;-53
2023/04/24 11:39:05;;;;;;;8.83;7.93;;;14.30;99.90;;;;;;5017740;28;20204;-55
2023/04/24 11:41:32;;;;;;;7.03;6.43;;;14.40;99.90;;;;;;5006743;28;20257;-53
2023/04/24 11:44:01;;;;;;;8.93;6.60;;;14.40;99.90;;;;;;4999801;28;20208;-52
2023/04/24 11:46:29;;;;;;;8.27;7.23;;;14.40;99.90;;;;;;5014132;28;20211;-50
2023/04/24 11:48:57;;;;;;;7.37;6.67;;;14.30;99.90;;;;;;5018486;28;20196;-49
2023/04/24 11:51:25;;;;;;;7.33;6.63;;;14.40;99.90;;;;;;5004110;28;20223;-55
2023/04/24 11:53:52;;;;;;;7.40;6.77;;;14.40;99.90;;;;;;5012298;28;20789;-55
2023/04/24 11:56:19;;;;;;;7.70;7.03;;;14.20;99.90;;;;;;5016290;28;20227;-50
2023/04/24 11:58:48;;;;;;;7.53;6.93;;;14.10;99.90;;;;;;5016786;28;20220;-52
2023/04/24 12:01:16;;;;;;;7.60;6.90;;;14.10;99.90;;;;;;5013437;28;20728;-53
2023/04/24 12:03:49;;;;;;;8.47;7.67;;;14.10;99.90;;;;;;5017496;28;20250;-52
2023/04/24 12:06:16;;;;;;;7.93;7.10;;;14.10;99.90;;;;;;5004967;28;20220;-52
2023/04/24 12:08:47;;;;;;;8.33;6.70;;;14.00;99.90;;;;;;5020667;28;20652;-50
2023/04/24 12:11:34;;;;;;;8.27;7.53;;;13.90;99.90;;;;;;5011186;28;20239;-50
2023/04/24 12:14:12;;;;;;;9.47;7.60;;;13.80;99.90;;;;;;5012196;28;20188;-53
2023/04/24 12:16:40;;;;;;;8.90;7.03;;;13.70;99.90;;;;;;5001754;28;20215;-48
2023/04/24 12:19:07;;;;;;;6.83;6.20;;;13.60;99.90;;;;;;5022527;28;20253;-48
2023/04/24 12:21:34;;;;;;;7.07;6.47;;;13.70;99.90;;;;;;5019535;28;20279;-53
2023/04/24 12:24:00;;;;;;;7.10;6.40;;;13.80;99.90;;;;;;4999543;28;20220;-53
2023/04/24 12:26:28;;;;;;;6.40;5.80;;;13.90;99.90;;;;;;4996226;28;20247;-53
2023/04/24 12:28:55;;;;;;;7.67;6.10;;;14.00;99.90;;;;;;5013411;28;20192;-49
2023/04/24 12:31:23;;;;;;;6.30;5.53;;;13.90;99.90;;;;;;5020796;28;20232;-53
2023/04/24 12:33:51;;;;;;;7.03;5.47;;;13.90;99.90;;;;;;5017397;28;20200;-51
2023/04/24 12:36:21;;;;;;;6.40;5.70;;;13.90;99.90;;;;;;5018809;28;20275;-55
2023/04/24 12:38:54;;;;;;;7.07;5.67;;;13.80;99.90;;;;;;5000674;28;20228;-53
2023/04/24 12:41:21;;;;;;;7.27;5.87;;;13.70;99.90;;;;;;5002293;28;20207;-50
2023/04/24 12:43:55;;;;;;;5.47;5.07;;;13.70;99.90;;;;;;5014427;28;20243;-52
2023/04/24 12:46:22;;;;;;;6.83;6.13;;;13.60;99.90;;;;;;5017621;28;20247;-52
2023/04/24 12:48:48;;;;;;;6.40;5.73;;;13.50;99.90;;;;;;5018092;28;20199;-54
2023/04/24 12:51:16;;;;;;;5.93;5.43;;;13.40;99.90;;;;;;5020805;28;20192;-50
2023/04/24 12:53:43;;;;;;;6.30;5.70;;;13.30;99.90;;;;;;4991108;28;20208;-50
2023/04/24 12:56:10;;;;;;;5.53;5.13;;;13.30;99.90;;;;;;5009680;28;20220;-53